East Harling, United Kingdom
Current Conditions -  °F | °C
As of 8:58 AM on Thursday 23 Oct 2014 (Local Time) from EGUL Reporting Station
Overcast Overcast  
Wind Chill: 12°   Ceiling: 3500
Heat Index: 12°   Visibility: 6mi
Dew Point: 12°   Wind: 12mph
Humidity: 100%   Direction: 210°SSW
Pressure: 30.08"   Gusts: NA
Location:  52.44°N, 0.93°E
Report Text: EGUL 230758Z AUTO 21010KT 9999 OVC035 12/12 A3008 RMK AO2 SLP189 T01190119
Loading
Personal Weather Stations






























Interactive Weather Map
Tropical Storm Tracking
New forecast layout! Learn more

10-Day Weather Forecast

Advertisements
Track Severe Weather on mobile